sensor_id;sensor_type;location;lat;lon;timestamp;pressure;altitude;pressure_sealevel;temperature;humidity
13013;BME280;22580;57.670;12.006;2022-09-02T00:02:12;102241.56;;;17.58;86.46
13013;BME280;22580;57.670;12.006;2022-09-02T00:04:41;102195.53;;;17.35;85.69
13013;BME280;22580;57.670;12.006;2022-09-02T00:07:08;102161.91;;;17.04;85.15
13013;BME280;22580;57.670;12.006;2022-09-02T00:09:35;102232.22;;;17.51;85.73
13013;BME280;22580;57.670;12.006;2022-09-02T00:12:06;102166.84;;;17.11;85.42
13013;BME280;22580;57.670;12.006;2022-09-02T00:14:36;102154.56;;;16.83;85.41
13013;BME280;22580;57.670;12.006;2022-09-02T00:17:04;102233.41;;;17.12;86.22
13013;BME280;22580;57.670;12.006;2022-09-02T00:19:32;102168.81;;;16.85;85.86
13013;BME280;22580;57.670;12.006;2022-09-02T00:22:00;102236.06;;;17.24;85.63
13013;BME280;22580;57.670;12.006;2022-09-02T00:24:28;102211.56;;;17.15;85.66
13013;BME280;22580;57.670;12.006;2022-09-02T00:26:55;102234.84;;;17.28;85.54
13013;BME280;22580;57.670;12.006;2022-09-02T00:29:22;102228.00;;;17.12;85.59
13013;BME280;22580;57.670;12.006;2022-09-02T00:31:50;102234.66;;;16.95;86.51
13013;BME280;22580;57.670;12.006;2022-09-02T00:34:17;102202.97;;;16.73;86.77
13013;BME280;22580;57.670;12.006;2022-09-02T00:36:45;102159.81;;;16.48;86.93
13013;BME280;22580;57.670;12.006;2022-09-02T00:39:12;102149.41;;;16.43;87.05
13013;BME280;22580;57.670;12.006;2022-09-02T00:41:41;102130.66;;;16.29;86.97
13013;BME280;22580;57.670;12.006;2022-09-02T00:44:10;102191.88;;;16.65;86.99
13013;BME280;22580;57.670;12.006;2022-09-02T00:46:38;102223.09;;;16.69;87.66
13013;BME280;22580;57.670;12.006;2022-09-02T00:49:13;102188.44;;;16.50;88.41
13013;BME280;22580;57.670;12.006;2022-09-02T00:51:43;102240.91;;;16.71;88.99
13013;BME280;22580;57.670;12.006;2022-09-02T00:54:13;102239.47;;;16.79;89.02
13013;BME280;22580;57.670;12.006;2022-09-02T00:56:43;102218.09;;;16.63;89.36
13013;BME280;22580;57.670;12.006;2022-09-02T00:59:24;102199.00;;;16.53;89.38
13013;BME280;22580;57.670;12.006;2022-09-02T01:01:56;102221.03;;;16.60;89.58
13013;BME280;22580;57.670;12.006;2022-09-02T01:04:24;102243.06;;;16.66;90.05
13013;BME280;22580;57.670;12.006;2022-09-02T01:06:53;102241.19;;;16.80;89.82
13013;BME280;22580;57.670;12.006;2022-09-02T01:09:29;102233.41;;;16.88;89.48
13013;BME280;22580;57.670;12.006;2022-09-02T01:12:01;102243.63;;;16.95;88.55
13013;BME280;22580;57.670;12.006;2022-09-02T01:14:29;102231.34;;;16.91;88.01
13013;BME280;22580;57.670;12.006;2022-09-02T01:16:59;102237.47;;;16.93;87.84
13013;BME280;22580;57.670;12.006;2022-09-02T01:19:32;102197.81;;;16.70;87.39
13013;BME280;22580;57.670;12.006;2022-09-02T01:22:01;102190.00;;;16.42;88.41
13013;BME280;22580;57.670;12.006;2022-09-02T01:24:32;102185.47;;;16.42;88.23
13013;BME280;22580;57.670;12.006;2022-09-02T01:26:59;102181.69;;;16.45;88.29
13013;BME280;22580;57.670;12.006;2022-09-02T01:29:28;102195.66;;;16.50;88.32
13013;BME280;22580;57.670;12.006;2022-09-02T01:31:55;102229.34;;;16.69;88.22
13013;BME280;22580;57.670;12.006;2022-09-02T01:34:22;102224.28;;;16.65;88.09
13013;BME280;22580;57.670;12.006;2022-09-02T01:36:50;102221.47;;;16.54;88.75
13013;BME280;22580;57.670;12.006;2022-09-02T01:39:21;102152.38;;;16.15;89.12
13013;BME280;22580;57.670;12.006;2022-09-02T01:41:49;102230.47;;;16.42;89.23
13013;BME280;22580;57.670;12.006;2022-09-02T01:44:16;102160.06;;;15.95;89.96
13013;BME280;22580;57.670;12.006;2022-09-02T01:46:44;102181.19;;;16.14;90.51
13013;BME280;22580;57.670;12.006;2022-09-02T01:49:12;102182.38;;;16.10;90.65
13013;BME280;22580;57.670;12.006;2022-09-02T01:51:39;102229.84;;;16.38;90.38
13013;BME280;22580;57.670;12.006;2022-09-02T01:54:06;102143.03;;;15.82;90.86
13013;BME280;22580;57.670;12.006;2022-09-02T01:56:37;102157.47;;;15.94;91.11
13013;BME280;22580;57.670;12.006;2022-09-02T01:59:06;102218.72;;;16.43;90.85
13013;BME280;22580;57.670;12.006;2022-09-02T02:01:35;102184.75;;;16.27;90.29
13013;BME280;22580;57.670;12.006;2022-09-02T02:04:03;102194.78;;;16.25;90.36
13013;BME280;22580;57.670;12.006;2022-09-02T02:06:30;102232.75;;;16.35;90.49
13013;BME280;22580;57.670;12.006;2022-09-02T02:08:57;102229.88;;;16.13;91.83
13013;BME280;22580;57.670;12.006;2022-09-02T02:11:25;102217.66;;;16.20;91.45
13013;BME280;22580;57.670;12.006;2022-09-02T02:13:54;102220.47;;;16.18;91.30
13013;BME280;22580;57.670;12.006;2022-09-02T02:16:21;102191.56;;;16.08;91.21
13013;BME280;22580;57.670;12.006;2022-09-02T02:18:48;102224.56;;;16.36;91.32
13013;BME280;22580;57.670;12.006;2022-09-02T02:21:15;102227.47;;;16.33;91.04
13013;BME280;22580;57.670;12.006;2022-09-02T02:23:42;102181.09;;;16.03;90.65
13013;BME280;22580;57.670;12.006;2022-09-02T02:26:10;102155.09;;;15.89;90.53
13013;BME280;22580;57.670;12.006;2022-09-02T02:28:37;102185.41;;;15.67;91.60
13013;BME280;22580;57.670;12.006;2022-09-02T02:31:06;102166.63;;;15.53;92.21
13013;BME280;22580;57.670;12.006;2022-09-02T02:33:34;102236.13;;;15.88;93.05
13013;BME280;22580;57.670;12.006;2022-09-02T02:36:03;102226.94;;;15.78;93.37
13013;BME280;22580;57.670;12.006;2022-09-02T02:38:30;102165.13;;;15.49;93.39
13013;BME280;22580;57.670;12.006;2022-09-02T02:41:00;102226.63;;;15.95;93.07
13013;BME280;22580;57.670;12.006;2022-09-02T02:43:31;102185.75;;;15.88;92.43
13013;BME280;22580;57.670;12.006;2022-09-02T02:45:58;102190.91;;;15.79;92.39
13013;BME280;22580;57.670;12.006;2022-09-02T02:48:26;102224.56;;;15.98;92.93
13013;BME280;22580;57.670;12.006;2022-09-02T02:50:53;102229.44;;;16.06;93.46
13013;BME280;22580;57.670;12.006;2022-09-02T02:53:20;102237.75;;;16.16;92.85
13013;BME280;22580;57.670;12.006;2022-09-02T02:55:47;102236.13;;;16.13;92.88
13013;BME280;22580;57.670;12.006;2022-09-02T02:58:15;102196.53;;;15.76;92.75
13013;BME280;22580;57.670;12.006;2022-09-02T03:00:42;102109.66;;;15.20;92.74
13013;BME280;22580;57.670;12.006;2022-09-02T03:03:11;102224.34;;;15.89;93.12
13013;BME280;22580;57.670;12.006;2022-09-02T03:05:39;102218.94;;;15.76;93.30
13013;BME280;22580;57.670;12.006;2022-09-02T03:08:08;102236.97;;;15.88;93.80
13013;BME280;22580;57.670;12.006;2022-09-02T03:10:40;102160.03;;;15.45;93.40
13013;BME280;22580;57.670;12.006;2022-09-02T03:13:08;102242.25;;;15.90;94.03
13013;BME280;22580;57.670;12.006;2022-09-02T03:15:37;102248.75;;;16.00;93.70
13013;BME280;22580;57.670;12.006;2022-09-02T03:18:05;102186.81;;;15.73;93.24
13013;BME280;22580;57.670;12.006;2022-09-02T03:20:32;102200.94;;;15.77;93.64
13013;BME280;22580;57.670;12.006;2022-09-02T03:23:01;102118.53;;;15.34;93.55
13013;BME280;22580;57.670;12.006;2022-09-02T03:25:29;102193.19;;;15.85;92.94
13013;BME280;22580;57.670;12.006;2022-09-02T03:27:57;102189.19;;;15.78;93.04
13013;BME280;22580;57.670;12.006;2022-09-02T03:30:25;102191.34;;;15.98;93.18
13013;BME280;22580;57.670;12.006;2022-09-02T03:32:54;102226.72;;;16.31;92.59
13013;BME280;22580;57.670;12.006;2022-09-02T03:35:21;102225.22;;;16.27;91.74
13013;BME280;22580;57.670;12.006;2022-09-02T03:37:50;102192.19;;;16.24;91.39
13013;BME280;22580;57.670;12.006;2022-09-02T03:40:21;102159.19;;;15.69;92.00
13013;BME280;22580;57.670;12.006;2022-09-02T03:42:48;102246.47;;;16.19;92.24
13013;BME280;22580;57.670;12.006;2022-09-02T03:45:16;102227.81;;;16.16;91.78
13013;BME280;22580;57.670;12.006;2022-09-02T03:47:45;102102.91;;;15.52;92.09
13013;BME280;22580;57.670;12.006;2022-09-02T03:50:15;102135.25;;;15.78;91.01
13013;BME280;22580;57.670;12.006;2022-09-02T03:52:46;102251.34;;;16.27;91.25
13013;BME280;22580;57.670;12.006;2022-09-02T03:55:14;102235.38;;;16.24;91.70
13013;BME280;22580;57.670;12.006;2022-09-02T03:57:42;102146.59;;;15.70;90.94
13013;BME280;22580;57.670;12.006;2022-09-02T04:00:11;102159.53;;;15.65;91.53
13013;BME280;22580;57.670;12.006;2022-09-02T04:02:42;102208.38;;;16.11;91.53
13013;BME280;22580;57.670;12.006;2022-09-02T04:05:10;102207.22;;;16.02;91.93
13013;BME280;22580;57.670;12.006;2022-09-02T04:07:38;102208.94;;;16.03;91.25
13013;BME280;22580;57.670;12.006;2022-09-02T04:10:07;102243.03;;;16.17;90.95
13013;BME280;22580;57.670;12.006;2022-09-02T04:12:34;102232.78;;;16.10;91.65
13013;BME280;22580;57.670;12.006;2022-09-02T04:15:04;102152.84;;;15.70;91.22
13013;BME280;22580;57.670;12.006;2022-09-02T04:17:34;102235.38;;;16.24;91.52
13013;BME280;22580;57.670;12.006;2022-09-02T04:20:02;102194.91;;;15.98;90.98
13013;BME280;22580;57.670;12.006;2022-09-02T04:22:30;102252.19;;;16.15;91.86
13013;BME280;22580;57.670;12.006;2022-09-02T04:24:57;102245.28;;;16.11;91.01
13013;BME280;22580;57.670;12.006;2022-09-02T04:27:24;102198.03;;;15.80;91.26
13013;BME280;22580;57.670;12.006;2022-09-02T04:29:51;102222.19;;;16.06;90.92
13013;BME280;22580;57.670;12.006;2022-09-02T04:32:20;102248.09;;;15.96;90.83
13013;BME280;22580;57.670;12.006;2022-09-02T04:34:47;102239.44;;;15.66;91.69
13013;BME280;22580;57.670;12.006;2022-09-02T04:37:16;102239.56;;;15.77;91.78
13013;BME280;22580;57.670;12.006;2022-09-02T04:39:43;102133.88;;;15.07;91.78
13013;BME280;22580;57.670;12.006;2022-09-02T04:42:10;102241.38;;;15.77;91.78
13013;BME280;22580;57.670;12.006;2022-09-02T04:44:37;102238.78;;;15.75;91.73
13013;BME280;22580;57.670;12.006;2022-09-02T04:47:04;102160.84;;;15.20;92.50
13013;BME280;22580;57.670;12.006;2022-09-02T04:49:32;102241.38;;;15.64;92.69
13013;BME280;22580;57.670;12.006;2022-09-02T04:52:00;102198.22;;;15.51;91.93
13013;BME280;22580;57.670;12.006;2022-09-02T04:54:27;102234.25;;;15.63;92.21
13013;BME280;22580;57.670;12.006;2022-09-02T04:56:54;102208.00;;;15.39;92.96
13013;BME280;22580;57.670;12.006;2022-09-02T04:59:21;102189.00;;;15.28;93.88
13013;BME280;22580;57.670;12.006;2022-09-02T05:01:49;102172.72;;;15.30;93.01
13013;BME280;22580;57.670;12.006;2022-09-02T05:04:16;102192.06;;;15.49;92.78
13013;BME280;22580;57.670;12.006;2022-09-02T05:06:45;102245.28;;;15.85;92.48
13013;BME280;22580;57.670;12.006;2022-09-02T05:09:12;102230.38;;;15.80;92.78
13013;BME280;22580;57.670;12.006;2022-09-02T05:11:40;102247.44;;;15.80;93.08
13013;BME280;22580;57.670;12.006;2022-09-02T05:14:07;102217.88;;;15.66;93.56
13013;BME280;22580;57.670;12.006;2022-09-02T05:16:37;102252.53;;;15.97;93.02
13013;BME280;22580;57.670;12.006;2022-09-02T05:19:07;102225.22;;;15.89;92.72
13013;BME280;22580;57.670;12.006;2022-09-02T05:21:38;102242.16;;;16.17;92.27
13013;BME280;22580;57.670;12.006;2022-09-02T05:24:07;102143.81;;;15.59;92.52
13013;BME280;22580;57.670;12.006;2022-09-02T05:26:35;102243.56;;;16.35;92.06
13013;BME280;22580;57.670;12.006;2022-09-02T05:29:02;102239.88;;;16.36;91.16
13013;BME280;22580;57.670;12.006;2022-09-02T05:31:31;102240.69;;;16.49;90.64
13013;BME280;22580;57.670;12.006;2022-09-02T05:33:59;102219.69;;;16.42;90.69
13013;BME280;22580;57.670;12.006;2022-09-02T05:36:26;102228.19;;;16.48;90.31
13013;BME280;22580;57.670;12.006;2022-09-02T05:38:53;102229.34;;;16.57;89.54
13013;BME280;22580;57.670;12.006;2022-09-02T05:41:22;102232.13;;;16.81;88.93
13013;BME280;22580;57.670;12.006;2022-09-02T05:43:50;102198.56;;;16.72;88.43
13013;BME280;22580;57.670;12.006;2022-09-02T05:46:20;102221.44;;;17.03;87.82
13013;BME280;22580;57.670;12.006;2022-09-02T05:48:48;102225.06;;;17.15;88.36
13013;BME280;22580;57.670;12.006;2022-09-02T05:51:39;102216.09;;;17.49;88.86
13013;BME280;22580;57.670;12.006;2022-09-02T05:54:08;102204.75;;;17.68;86.51
13013;BME280;22580;57.670;12.006;2022-09-02T05:56:39;102156.38;;;17.52;86.54
13013;BME280;22580;57.670;12.006;2022-09-02T05:59:07;102193.75;;;17.93;86.10
13013;BME280;22580;57.670;12.006;2022-09-02T06:01:35;102171.59;;;17.88;84.61
13013;BME280;22580;57.670;12.006;2022-09-02T06:04:03;102150.56;;;17.81;83.56
13013;BME280;22580;57.670;12.006;2022-09-02T06:06:32;102225.84;;;18.43;83.36
13013;BME280;22580;57.670;12.006;2022-09-02T06:09:04;102236.16;;;18.60;81.56
13013;BME280;22580;57.670;12.006;2022-09-02T06:11:33;102220.66;;;18.51;80.58
13013;BME280;22580;57.670;12.006;2022-09-02T06:14:05;102161.00;;;18.30;81.69
13013;BME280;22580;57.670;12.006;2022-09-02T06:16:33;102225.47;;;18.58;81.74
13013;BME280;22580;57.670;12.006;2022-09-02T06:19:03;102237.03;;;18.83;80.97
13013;BME280;22580;57.670;12.006;2022-09-02T06:21:31;102247.13;;;18.81;81.56
13013;BME280;22580;57.670;12.006;2022-09-02T06:23:58;102253.66;;;18.89;81.27
13013;BME280;22580;57.670;12.006;2022-09-02T06:26:26;102242.81;;;19.21;80.54
13013;BME280;22580;57.670;12.006;2022-09-02T06:28:53;102228.41;;;19.21;78.66
13013;BME280;22580;57.670;12.006;2022-09-02T06:31:22;102198.63;;;19.10;78.63
13013;BME280;22580;57.670;12.006;2022-09-02T06:33:52;102263.31;;;19.78;75.82
13013;BME280;22580;57.670;12.006;2022-09-02T06:36:21;102128.69;;;19.04;74.98
13013;BME280;22580;57.670;12.006;2022-09-02T06:38:50;102237.16;;;19.56;74.52
13013;BME280;22580;57.670;12.006;2022-09-02T06:41:19;102243.44;;;19.57;73.38
13013;BME280;22580;57.670;12.006;2022-09-02T06:43:48;102261.09;;;19.51;74.57
13013;BME280;22580;57.670;12.006;2022-09-02T06:46:17;102209.16;;;19.24;73.95
13013;BME280;22580;57.670;12.006;2022-09-02T06:48:45;102250.47;;;19.48;74.71
13013;BME280;22580;57.670;12.006;2022-09-02T06:51:16;102265.53;;;19.52;74.29
13013;BME280;22580;57.670;12.006;2022-09-02T06:53:44;102225.94;;;19.18;73.95
13013;BME280;22580;57.670;12.006;2022-09-02T06:56:11;102257.28;;;19.54;73.54
13013;BME280;22580;57.670;12.006;2022-09-02T06:58:38;102272.44;;;19.77;73.78
13013;BME280;22580;57.670;12.006;2022-09-02T07:01:05;102267.47;;;19.61;73.26
13013;BME280;22580;57.670;12.006;2022-09-02T07:03:33;102269.78;;;19.66;73.78
13013;BME280;22580;57.670;12.006;2022-09-02T07:06:19;102213.28;;;19.71;72.21
13013;BME280;22580;57.670;12.006;2022-09-02T07:08:49;102267.78;;;20.10;72.16
13013;BME280;22580;57.670;12.006;2022-09-02T07:11:18;102237.25;;;19.87;71.71
13013;BME280;22580;57.670;12.006;2022-09-02T07:13:45;102256.44;;;20.25;70.42
13013;BME280;22580;57.670;12.006;2022-09-02T07:16:13;102201.56;;;19.91;70.37
13013;BME280;22580;57.670;12.006;2022-09-02T07:18:41;102247.88;;;20.51;69.45
13013;BME280;22580;57.670;12.006;2022-09-02T07:21:09;102253.66;;;20.67;68.04
13013;BME280;22580;57.670;12.006;2022-09-02T07:23:41;102246.91;;;20.61;68.35
13013;BME280;22580;57.670;12.006;2022-09-02T07:26:11;102262.53;;;20.69;67.03
13013;BME280;22580;57.670;12.006;2022-09-02T07:28:39;102185.25;;;20.52;65.57
13013;BME280;22580;57.670;12.006;2022-09-02T07:31:08;102244.53;;;20.87;66.63
13013;BME280;22580;57.670;12.006;2022-09-02T07:33:36;102245.81;;;20.83;65.15
13013;BME280;22580;57.670;12.006;2022-09-02T07:36:04;102238.41;;;21.05;64.14
13013;BME280;22580;57.670;12.006;2022-09-02T07:38:32;102268.16;;;20.97;64.05
13013;BME280;22580;57.670;12.006;2022-09-02T07:41:01;102221.34;;;20.83;63.76
13013;BME280;22580;57.670;12.006;2022-09-02T07:43:30;102238.00;;;21.09;63.88
13013;BME280;22580;57.670;12.006;2022-09-02T07:45:59;102261.88;;;21.06;62.98
13013;BME280;22580;57.670;12.006;2022-09-02T07:48:28;102220.78;;;20.89;64.19
13013;BME280;22580;57.670;12.006;2022-09-02T07:50:56;102271.34;;;21.21;62.73
13013;BME280;22580;57.670;12.006;2022-09-02T07:53:24;102265.53;;;21.35;61.82
13013;BME280;22580;57.670;12.006;2022-09-02T07:55:52;102259.94;;;21.27;60.87
13013;BME280;22580;57.670;12.006;2022-09-02T07:58:20;102264.19;;;21.20;59.43
13013;BME280;22580;57.670;12.006;2022-09-02T08:00:51;102202.97;;;20.47;60.19
13013;BME280;22580;57.670;12.006;2022-09-02T08:03:39;102252.78;;;21.55;60.35
13013;BME280;22580;57.670;12.006;2022-09-02T08:06:09;102270.78;;;21.85;59.29
13013;BME280;22580;57.670;12.006;2022-09-02T08:08:37;102242.28;;;21.70;58.87
13013;BME280;22580;57.670;12.006;2022-09-02T08:11:05;102271.22;;;21.90;58.23
13013;BME280;22580;57.670;12.006;2022-09-02T08:13:36;102271.19;;;22.00;58.19
13013;BME280;22580;57.670;12.006;2022-09-02T08:16:04;102243.41;;;21.86;56.80
13013;BME280;22580;57.670;12.006;2022-09-02T08:18:32;102221.53;;;21.69;57.32
13013;BME280;22580;57.670;12.006;2022-09-02T08:20:59;102272.28;;;21.60;58.05
13013;BME280;22580;57.670;12.006;2022-09-02T08:23:26;102234.75;;;21.35;58.79
13013;BME280;22580;57.670;12.006;2022-09-02T08:25:57;102277.56;;;21.33;58.89
13013;BME280;22580;57.670;12.006;2022-09-02T08:28:25;102241.63;;;21.58;58.16
13013;BME280;22580;57.670;12.006;2022-09-02T08:30:55;102272.19;;;22.18;58.65
13013;BME280;22580;57.670;12.006;2022-09-02T08:33:23;102271.88;;;22.31;56.83
13013;BME280;22580;57.670;12.006;2022-09-02T08:35:50;102256.72;;;22.18;56.55
13013;BME280;22580;57.670;12.006;2022-09-02T08:38:17;102214.00;;;22.00;55.90
13013;BME280;22580;57.670;12.006;2022-09-02T08:40:46;102277.00;;;22.43;55.48
13013;BME280;22580;57.670;12.006;2022-09-02T08:43:26;102276.63;;;22.56;56.20
13013;BME280;22580;57.670;12.006;2022-09-02T08:46:01;102227.41;;;22.57;54.92
13013;BME280;22580;57.670;12.006;2022-09-02T08:48:35;102221.59;;;22.52;54.63
13013;BME280;22580;57.670;12.006;2022-09-02T08:51:07;102250.81;;;22.87;55.40
13013;BME280;22580;57.670;12.006;2022-09-02T08:53:43;102267.69;;;23.01;55.15
13013;BME280;22580;57.670;12.006;2022-09-02T08:56:15;102271.31;;;22.92;55.33
13013;BME280;22580;57.670;12.006;2022-09-02T08:58:44;102259.50;;;23.01;55.62
13013;BME280;22580;57.670;12.006;2022-09-02T09:01:22;102275.47;;;22.58;55.03
13013;BME280;22580;57.670;12.006;2022-09-02T09:04:05;102266.25;;;22.69;55.07
13013;BME280;22580;57.670;12.006;2022-09-02T09:06:43;102274.53;;;22.77;54.32
13013;BME280;22580;57.670;12.006;2022-09-02T09:09:20;102259.47;;;22.46;54.06
13013;BME280;22580;57.670;12.006;2022-09-02T09:12:00;102267.97;;;22.98;52.98
13013;BME280;22580;57.670;12.006;2022-09-02T09:14:34;102269.34;;;22.84;52.38
13013;BME280;22580;57.670;12.006;2022-09-02T09:17:13;102274.66;;;22.76;53.20
13013;BME280;22580;57.670;12.006;2022-09-02T09:19:47;102257.16;;;22.51;52.37
13013;BME280;22580;57.670;12.006;2022-09-02T09:22:18;102266.06;;;22.80;52.99
13013;BME280;22580;57.670;12.006;2022-09-02T09:24:48;102238.56;;;22.64;53.29
13013;BME280;22580;57.670;12.006;2022-09-02T09:27:17;102261.56;;;22.89;52.29
13013;BME280;22580;57.670;12.006;2022-09-02T09:29:45;102267.81;;;22.72;51.69
13013;BME280;22580;57.670;12.006;2022-09-02T09:32:22;102256.44;;;22.76;51.11
13013;BME280;22580;57.670;12.006;2022-09-02T09:34:56;102261.41;;;22.91;50.61
13013;BME280;22580;57.670;12.006;2022-09-02T09:37:33;102212.56;;;22.52;51.27
13013;BME280;22580;57.670;12.006;2022-09-02T09:40:21;102177.34;;;22.41;50.37
13013;BME280;22580;57.670;12.006;2022-09-02T09:42:52;102265.13;;;23.17;50.26
13013;BME280;22580;57.670;12.006;2022-09-02T09:45:29;102263.09;;;23.19;49.59
13013;BME280;22580;57.670;12.006;2022-09-02T09:48:20;102147.59;;;22.65;49.92
13013;BME280;22580;57.670;12.006;2022-09-02T09:51:11;102242.53;;;23.25;48.93
13013;BME280;22580;57.670;12.006;2022-09-02T09:53:40;102219.19;;;22.95;49.48
13013;BME280;22580;57.670;12.006;2022-09-02T09:56:29;102253.22;;;23.18;49.55
13013;BME280;22580;57.670;12.006;2022-09-02T09:58:57;102238.16;;;23.14;49.75
13013;BME280;22580;57.670;12.006;2022-09-02T10:01:28;102250.69;;;23.42;47.52
13013;BME280;22580;57.670;12.006;2022-09-02T10:03:59;102241.88;;;23.48;46.69
13013;BME280;22580;57.670;12.006;2022-09-02T10:06:39;102258.44;;;23.65;47.83
13013;BME280;22580;57.670;12.006;2022-09-02T10:09:28;102258.72;;;23.79;47.30
13013;BME280;22580;57.670;12.006;2022-09-02T10:11:58;102248.28;;;23.75;47.70
13013;BME280;22580;57.670;12.006;2022-09-02T10:14:26;102250.00;;;23.58;46.45
13013;BME280;22580;57.670;12.006;2022-09-02T10:17:05;102249.03;;;23.85;47.00
13013;BME280;22580;57.670;12.006;2022-09-02T10:19:43;102254.97;;;23.80;46.15
13013;BME280;22580;57.670;12.006;2022-09-02T10:22:40;102195.69;;;23.73;46.17
13013;BME280;22580;57.670;12.006;2022-09-02T10:25:21;102224.72;;;24.00;45.58
13013;BME280;22580;57.670;12.006;2022-09-02T10:27:58;102236.50;;;24.00;44.33
13013;BME280;22580;57.670;12.006;2022-09-02T10:30:31;102221.34;;;23.80;44.88
13013;BME280;22580;57.670;12.006;2022-09-02T10:33:21;102245.50;;;24.18;44.84
13013;BME280;22580;57.670;12.006;2022-09-02T10:35:58;102250.44;;;24.41;43.96
13013;BME280;22580;57.670;12.006;2022-09-02T10:38:37;102216.81;;;24.14;42.98
13013;BME280;22580;57.670;12.006;2022-09-02T10:41:16;102210.84;;;24.19;42.17
13013;BME280;22580;57.670;12.006;2022-09-02T10:43:59;102224.88;;;23.72;42.69
13013;BME280;22580;57.670;12.006;2022-09-02T10:46:35;102237.16;;;24.20;42.86
13013;BME280;22580;57.670;12.006;2022-09-02T10:49:13;102245.59;;;24.35;41.41
13013;BME280;22580;57.670;12.006;2022-09-02T10:51:53;102235.63;;;24.51;42.37
13013;BME280;22580;57.670;12.006;2022-09-02T10:54:32;102226.63;;;24.67;41.94
13013;BME280;22580;57.670;12.006;2022-09-02T10:57:05;102197.84;;;24.47;43.24
13013;BME280;22580;57.670;12.006;2022-09-02T10:59:39;102224.88;;;24.58;44.13
13013;BME280;22580;57.670;12.006;2022-09-02T11:02:12;102148.25;;;24.26;42.23
13013;BME280;22580;57.670;12.006;2022-09-02T11:04:45;102215.81;;;25.00;41.53
13013;BME280;22580;57.670;12.006;2022-09-02T11:07:22;102213.78;;;25.02;42.47
13013;BME280;22580;57.670;12.006;2022-09-02T11:09:55;102218.16;;;24.87;42.20
13013;BME280;22580;57.670;12.006;2022-09-02T11:12:28;102208.41;;;24.92;40.93
13013;BME280;22580;57.670;12.006;2022-09-02T11:15:02;102224.72;;;25.10;41.36
13013;BME280;22580;57.670;12.006;2022-09-02T11:17:36;102214.03;;;24.82;40.50
13013;BME280;22580;57.670;12.006;2022-09-02T11:20:13;102203.19;;;25.07;40.89
13013;BME280;22580;57.670;12.006;2022-09-02T11:22:51;102214.97;;;25.15;40.95
13013;BME280;22580;57.670;12.006;2022-09-02T11:25:24;102213.09;;;25.32;39.91
13013;BME280;22580;57.670;12.006;2022-09-02T11:27:57;102215.50;;;25.43;41.48
13013;BME280;22580;57.670;12.006;2022-09-02T11:30:34;102152.72;;;25.01;39.34
13013;BME280;22580;57.670;12.006;2022-09-02T11:33:12;102214.81;;;25.58;40.08
13013;BME280;22580;57.670;12.006;2022-09-02T11:35:41;102159.19;;;25.57;40.25
13013;BME280;22580;57.670;12.006;2022-09-02T11:38:24;102217.84;;;26.03;39.56
13013;BME280;22580;57.670;12.006;2022-09-02T11:41:11;102165.38;;;25.75;38.51
13013;BME280;22580;57.670;12.006;2022-09-02T11:43:47;102208.94;;;26.01;39.27
13013;BME280;22580;57.670;12.006;2022-09-02T11:46:34;102217.63;;;26.21;39.12
13013;BME280;22580;57.670;12.006;2022-09-02T11:49:20;102194.47;;;26.40;36.71
13013;BME280;22580;57.670;12.006;2022-09-02T11:52:00;102212.34;;;26.20;36.66
13013;BME280;22580;57.670;12.006;2022-09-02T11:54:34;102128.56;;;25.54;37.02
13013;BME280;22580;57.670;12.006;2022-09-02T11:57:04;102190.19;;;26.29;37.14
13013;BME280;22580;57.670;12.006;2022-09-02T12:00:01;102206.25;;;26.49;37.16
13013;BME280;22580;57.670;12.006;2022-09-02T12:02:36;102191.97;;;26.14;37.59
13013;BME280;22580;57.670;12.006;2022-09-02T12:11:48;102193.28;;;27.04;36.60
13013;BME280;22580;57.670;12.006;2022-09-02T12:17:43;102189.19;;;27.23;36.92
13013;BME280;22580;57.670;12.006;2022-09-02T12:26:18;102184.38;;;27.25;35.27
13013;BME280;22580;57.670;12.006;2022-09-02T12:28:47;102184.34;;;27.48;35.34
13013;BME280;22580;57.670;12.006;2022-09-02T12:31:18;102193.34;;;27.42;34.88
13013;BME280;22580;57.670;12.006;2022-09-02T12:34:54;102146.47;;;27.21;35.07
13013;BME280;22580;57.670;12.006;2022-09-02T12:37:49;102175.16;;;27.18;34.93
13013;BME280;22580;57.670;12.006;2022-09-02T12:40:28;102108.56;;;26.93;35.33
13013;BME280;22580;57.670;12.006;2022-09-02T12:43:02;102116.59;;;26.80;35.05
13013;BME280;22580;57.670;12.006;2022-09-02T12:45:41;102166.72;;;26.97;34.96
13013;BME280;22580;57.670;12.006;2022-09-02T12:48:16;102147.19;;;26.69;34.15
13013;BME280;22580;57.670;12.006;2022-09-02T12:50:53;102184.25;;;27.41;34.08
13013;BME280;22580;57.670;12.006;2022-09-02T12:53:36;102170.13;;;27.45;33.32
13013;BME280;22580;57.670;12.006;2022-09-02T12:56:14;102173.81;;;27.89;34.43
13013;BME280;22580;57.670;12.006;2022-09-02T12:58:45;102127.28;;;27.88;33.21
13013;BME280;22580;57.670;12.006;2022-09-02T13:01:17;102132.81;;;27.73;33.05
13013;BME280;22580;57.670;12.006;2022-09-02T13:03:58;102167.59;;;28.25;32.93
13013;BME280;22580;57.670;12.006;2022-09-02T13:06:38;102129.94;;;28.25;33.17
13013;BME280;22580;57.670;12.006;2022-09-02T13:09:33;102166.53;;;28.77;33.62
13013;BME280;22580;57.670;12.006;2022-09-02T13:12:39;102093.41;;;28.46;32.15
13013;BME280;22580;57.670;12.006;2022-09-02T13:15:22;102168.50;;;29.19;32.32
13013;BME280;22580;57.670;12.006;2022-09-02T13:21:17;102153.88;;;29.18;30.78
13013;BME280;22580;57.670;12.006;2022-09-02T13:24:15;102155.63;;;29.47;31.00